Time;durP1;ratioP1;P1;durP2;ratioP2;P2;SDS_P1;SDS_P2;PMS_P1;PMS_P2;Temp;Humidity;BMP_temperature;BMP_pressure;BME280_temperature;BME280_humidity;BME280_pressure;Samples;Min_cycle;Max_cycle;Signal;HPM_P1;HPM_P2
2023/03/03 00:01:18;;;;;;;0.80;0.80;;;;;;;2.37;78.19;99444.47;4471726;32;34460;-74
2023/03/03 00:03:46;;;;;;;0.70;0.70;;;;;;;2.33;76.85;99448.66;4485825;32;33818;-75
2023/03/03 00:06:14;;;;;;;0.80;0.80;;;;;;;2.22;76.40;99445.84;4471555;32;33405;-79
2023/03/03 00:08:42;;;;;;;0.70;0.70;;;;;;;2.20;77.35;99446.59;4485778;32;35223;-78
2023/03/03 00:11:10;;;;;;;0.70;0.70;;;;;;;2.20;77.97;99438.91;4485598;32;34327;-79
2023/03/03 00:13:47;;;;;;;1.00;1.00;;;;;;;1.85;80.49;99438.88;4471635;32;33296;-78
2023/03/03 00:16:21;;;;;;;0.90;0.90;;;;;;;1.85;84.12;99436.31;4471819;32;33918;-75
2023/03/03 00:18:50;;;;;;;0.85;0.85;;;;;;;2.22;82.76;99434.66;4471251;32;35206;-79
2023/03/03 00:21:28;;;;;;;0.80;0.80;;;;;;;2.42;81.16;99430.88;4485630;32;34318;-78
2023/03/03 00:24:15;;;;;;;1.05;1.05;;;;;;;2.82;77.13;99430.91;4471754;32;33461;-79
2023/03/03 00:26:50;;;;;;;0.70;0.70;;;;;;;2.83;76.12;99430.94;4485553;32;33963;-79
2023/03/03 00:29:35;;;;;;;0.70;0.70;;;;;;;2.73;75.18;99438.41;4485494;32;35835;-78
2023/03/03 00:32:14;;;;;;;0.80;0.80;;;;;;;1.99;76.94;99436.66;4485351;32;34130;-79
2023/03/03 00:34:42;;;;;;;0.70;0.70;;;;;;;2.22;75.64;99435.56;4471609;32;33462;-79
2023/03/03 00:37:33;;;;;;;0.70;0.70;;;;;;;2.21;76.25;99432.94;4471486;32;33923;-79
2023/03/03 00:40:14;;;;;;;1.15;1.10;;;;;;;1.94;78.71;99433.09;4471235;32;34829;-79
2023/03/03 00:42:48;;;;;;;2.92;2.78;;;;;;;2.19;76.66;99430.34;4471437;32;34468;-79
2023/03/03 00:45:28;;;;;;;0.70;0.70;;;;;;;2.27;76.17;99433.94;4471290;32;33517;-74
2023/03/03 00:47:57;;;;;;;0.70;0.70;;;;;;;2.15;76.56;99430.22;4471055;32;34735;-75
2023/03/03 00:50:28;;;;;;;0.70;0.70;;;;;;;1.98;77.89;99430.66;4485158;32;35219;-79
2023/03/03 00:53:17;;;;;;;0.70;0.70;;;;;;;2.06;77.65;99423.16;4471050;32;35217;-75
2023/03/03 00:55:48;;;;;;;0.80;0.80;;;;;;;1.73;78.16;99429.19;4472913;32;33443;-75
2023/03/03 00:58:20;;;;;;;0.77;0.77;;;;;;;1.94;77.66;99423.72;4473427;32;34341;-77
2023/03/03 01:00:53;;;;;;;5.05;4.70;;;;;;;2.08;76.61;99419.81;4460820;32;35910;-78
2023/03/03 01:03:25;;;;;;;0.90;0.90;;;;;;;2.02;76.39;99419.63;4487392;32;35120;-79
2023/03/03 01:05:54;;;;;;;0.73;0.73;;;;;;;2.01;76.89;99410.22;4487209;32;33450;-79
2023/03/03 01:08:22;;;;;;;0.90;0.90;;;;;;;2.18;75.87;99409.75;4472975;32;34037;-79
2023/03/03 01:10:56;;;;;;;0.80;0.80;;;;;;;2.09;76.41;99413.81;4473022;32;35727;-76
2023/03/03 01:13:27;;;;;;;0.85;0.85;;;;;;;2.01;76.79;99410.22;4486893;32;35248;-79
2023/03/03 01:15:55;;;;;;;0.80;0.80;;;;;;;1.91;78.17;99410.81;4472985;32;33617;-78
2023/03/03 01:18:24;;;;;;;0.70;0.70;;;;;;;1.99;78.67;99406.72;4487009;32;34101;-79
2023/03/03 01:20:52;;;;;;;0.75;0.75;;;;;;;2.18;78.07;99402.03;4473290;32;35601;-78
2023/03/03 01:23:20;;;;;;;0.80;0.80;;;;;;;2.16;77.79;99399.44;4472933;32;34579;-78
2023/03/03 01:25:48;;;;;;;0.70;0.70;;;;;;;2.23;78.85;99405.59;4486876;32;34196;-74
2023/03/03 01:28:16;;;;;;;0.70;0.70;;;;;;;2.22;79.08;99396.12;4487019;32;33904;-74
2023/03/03 01:30:44;;;;;;;0.70;0.70;;;;;;;2.29;80.04;99395.44;4486970;32;34919;-78
2023/03/03 01:33:13;;;;;;;1.25;1.25;;;;;;;2.38;79.24;99400.81;4486815;31;34520;-79
2023/03/03 01:35:45;;;;;;;0.70;0.70;;;;;;;2.37;80.51;99391.34;4486874;32;33527;-79
2023/03/03 01:38:14;;;;;;;1.00;1.00;;;;;;;2.55;80.13;99392.59;4472827;32;33983;-79
2023/03/03 01:40:42;;;;;;;0.73;0.73;;;;;;;2.42;79.93;99382.06;4472908;32;35917;-78
2023/03/03 01:43:14;;;;;;;0.73;0.73;;;;;;;2.25;80.67;99383.37;4486682;32;34512;-79
2023/03/03 01:46:06;;;;;;;2.75;1.17;;;;;;;2.70;81.57;99377.53;4486885;32;34458;-79
2023/03/03 01:48:41;;;;;;;0.85;0.85;;;;;;;2.93;80.64;99378.00;4448879;32;33862;-78
2023/03/03 01:51:22;;;;;;;0.65;0.65;;;;;;;2.87;81.46;99377.00;4472800;32;35140;-74
2023/03/03 01:53:54;;;;;;;1.12;1.12;;;;;;;3.18;79.55;99376.78;4472684;32;34318;-79
2023/03/03 01:56:23;;;;;;;0.70;0.70;;;;;;;3.17;79.85;99377.59;4473111;32;33610;-79
2023/03/03 01:58:51;;;;;;;1.35;1.35;;;;;;;3.22;79.87;99377.72;4472669;32;33902;-78
2023/03/03 02:01:22;;;;;;;0.70;0.70;;;;;;;3.37;78.71;99378.00;4486654;32;36004;-78
2023/03/03 02:03:52;;;;;;;0.62;0.62;;;;;;;3.28;79.84;99371.81;4472818;32;34447;-76
2023/03/03 02:06:27;;;;;;;1.60;1.60;;;;;;;3.63;78.43;99376.75;4472370;32;34348;-78
2023/03/03 02:09:18;;;;;;;0.70;0.70;;;;;;;3.70;77.29;99371.72;4472667;32;33802;-79
2023/03/03 02:11:48;;;;;;;0.70;0.70;;;;;;;3.59;78.15;99375.81;4486674;32;35264;-79
2023/03/03 02:14:16;;;;;;;1.10;1.10;;;;;;;3.51;78.93;99375.69;4472507;32;35169;-75
2023/03/03 02:16:44;;;;;;;0.62;0.62;;;;;;;3.61;78.69;99372.41;4486374;32;33965;-79
2023/03/03 02:19:38;;;;;;;0.70;0.70;;;;;;;3.69;78.77;99371.69;4472694;32;33858;-79
2023/03/03 02:22:06;;;;;;;0.70;0.70;;;;;;;3.71;79.18;99364.88;4476159;32;35019;-79
2023/03/03 02:24:44;;;;;;;0.60;0.60;;;;;;;3.71;80.23;99358.00;4486506;32;34332;-75
2023/03/03 02:27:13;;;;;;;0.75;0.75;;;;;;;3.95;79.52;99370.44;4472569;32;33339;-79
2023/03/03 02:29:42;;;;;;;3.03;2.67;;;;;;;4.03;79.47;99362.81;4486752;32;33778;-78
2023/03/03 02:32:10;;;;;;;2.20;2.05;;;;;;;4.04;79.90;99359.41;4486741;32;35083;-79
2023/03/03 02:34:49;;;;;;;0.90;0.90;;;;;;;3.83;83.44;99370.25;4486460;32;34482;-76
2023/03/03 02:37:18;;;;;;;0.60;0.60;;;;;;;4.29;81.11;99358.06;4472669;32;33653;-79
2023/03/03 02:39:46;;;;;;;0.60;0.60;;;;;;;4.41;79.94;99362.53;4472551;32;33975;-75
2023/03/03 02:42:19;;;;;;;0.60;0.60;;;;;;;3.90;82.84;99359.19;4486512;32;36052;-79
2023/03/03 02:44:48;;;;;;;0.50;0.50;;;;;;;3.90;85.01;99359.19;4486700;32;34475;-77
2023/03/03 02:47:16;;;;;;;0.60;0.60;;;;;;;4.32;84.06;99355.56;4486135;32;33477;-78
2023/03/03 02:49:44;;;;;;;0.77;0.77;;;;;;;4.23;85.42;99357.97;4486429;32;34644;-76
2023/03/03 02:52:13;;;;;;;0.70;0.70;;;;;;;4.73;83.02;99356.97;4486317;32;35352;-79
2023/03/03 02:54:43;;;;;;;0.70;0.70;;;;;;;4.96;81.92;99352.09;4486571;32;33549;-79
2023/03/03 02:57:11;;;;;;;0.68;0.68;;;;;;;4.92;81.46;99346.03;4472247;32;33453;-79
2023/03/03 02:59:39;;;;;;;0.70;0.70;;;;;;;4.95;81.06;99350.34;4486272;32;33950;-74
2023/03/03 03:02:08;;;;;;;4.87;1.48;;;;;;;5.32;78.72;99343.00;4486334;32;35819;-79
2023/03/03 03:04:35;;;;;;;0.60;0.60;;;;;;;5.53;78.15;99349.25;4486132;32;35224;-75
2023/03/03 03:07:04;;;;;;;0.90;0.90;;;;;;;5.47;78.10;99345.75;4486353;32;33573;-79
2023/03/03 03:09:32;;;;;;;4.28;4.03;;;;;;;5.31;78.98;99338.69;4486527;32;34714;-75
2023/03/03 03:12:01;;;;;;;0.80;0.80;;;;;;;5.51;78.70;99339.75;4486435;32;35062;-77
2023/03/03 03:14:30;;;;;;;0.70;0.70;;;;;;;5.53;78.64;99334.62;4486264;32;35151;-77
2023/03/03 03:16:58;;;;;;;0.60;0.60;;;;;;;5.62;79.17;99336.44;4485852;32;34210;-76
2023/03/03 03:19:27;;;;;;;0.70;0.70;;;;;;;5.37;81.70;99337.91;4485998;32;34626;-76
2023/03/03 03:21:57;;;;;;;0.73;0.73;;;;;;;5.45;81.42;99331.97;4472729;32;34251;-79
2023/03/03 03:24:26;;;;;;;0.50;0.50;;;;;;;5.55;80.71;99338.06;4486324;32;34484;-79
2023/03/03 03:26:54;;;;;;;0.70;0.70;;;;;;;5.31;83.60;99323.19;4486345;32;33587;-79
2023/03/03 03:29:22;;;;;;;1.00;1.00;;;;;;;5.75;80.61;99325.31;4471880;32;33388;-79
2023/03/03 03:31:50;;;;;;;2.70;2.60;;;;;;;5.79;79.08;99329.69;4485879;32;35061;-74
2023/03/03 03:34:18;;;;;;;0.93;0.93;;;;;;;5.86;79.38;99326.31;4471947;32;35110;-75
2023/03/03 03:36:48;;;;;;;0.80;0.80;;;;;;;5.26;82.97;99322.31;4486361;32;33582;-75
2023/03/03 03:39:16;;;;;;;0.50;0.50;;;;;;;5.17;84.44;99319.62;4486018;32;33963;-76
2023/03/03 03:41:45;;;;;;;1.75;1.00;;;;;;;5.84;82.55;99316.78;4486274;32;35093;-79
2023/03/03 03:44:13;;;;;;;0.50;0.50;;;;;;;6.14;80.31;99312.72;4472215;32;34037;-79
2023/03/03 03:46:42;;;;;;;0.50;0.50;;;;;;;6.18;79.13;99319.69;4485836;32;33442;-78
2023/03/03 03:49:10;;;;;;;0.50;0.50;;;;;;;5.57;83.08;99320.00;4472161;32;34813;-78
2023/03/03 03:51:40;;;;;;;1.75;1.65;;;;;;;5.69;82.42;99314.97;4485960;32;35187;-75
2023/03/03 03:54:09;;;;;;;1.02;1.00;;;;;;;5.67;82.76;99312.34;4485788;32;33680;-75
2023/03/03 03:56:38;;;;;;;1.60;1.55;;;;;;;5.99;81.40;99318.69;4472348;32;32967;-80
2023/03/03 03:59:07;;;;;;;1.30;1.27;;;;;;;6.17;81.42;99313.63;4486309;32;34704;-74
2023/03/03 04:01:36;;;;;;;0.80;0.80;;;;;;;6.58;78.06;99314.72;4457172;31;34604;-73
2023/03/03 04:04:04;;;;;;;0.65;0.65;;;;;;;6.37;78.43;99302.53;4485528;32;34638;-74
2023/03/03 04:06:33;;;;;;;0.60;0.60;;;;;;;6.64;77.57;99305.25;4485771;32;33480;-74
2023/03/03 04:09:02;;;;;;;0.70;0.70;;;;;;;6.00;80.53;99304.88;4485972;32;34011;-74
2023/03/03 04:11:31;;;;;;;1.83;1.73;;;;;;;6.67;77.02;99308.72;4485264;32;36055;-75
2023/03/03 04:13:59;;;;;;;0.60;0.60;;;;;;;6.69;75.98;99301.81;4485486;32;34439;-73
2023/03/03 04:16:27;;;;;;;0.70;0.70;;;;;;;6.38;78.16;99301.69;4485603;32;34435;-73
2023/03/03 04:18:55;;;;;;;0.70;0.70;;;;;;;6.32;79.41;99302.53;4485346;32;33763;-72
2023/03/03 04:21:24;;;;;;;0.70;0.70;;;;;;;6.61;78.60;99305.25;4485187;32;35753;-72
2023/03/03 04:23:52;;;;;;;0.60;0.60;;;;;;;6.60;77.45;99298.34;4485639;32;34897;-73
2023/03/03 04:26:21;;;;;;;0.52;0.52;;;;;;;6.50;78.12;99296.56;4485201;32;33316;-75
2023/03/03 04:28:49;;;;;;;1.05;1.05;;;;;;;6.04;79.42;99299.75;4471254;32;34809;-76
2023/03/03 04:31:19;;;;;;;0.70;0.70;;;;;;;6.34;78.48;99297.38;4485702;32;35048;-74
2023/03/03 04:33:47;;;;;;;0.50;0.50;;;;;;;6.13;79.96;99298.94;4469648;32;34097;-75
2023/03/03 04:36:16;;;;;;;0.90;0.90;;;;;;;6.06;78.96;99294.59;4469831;32;33540;-73
2023/03/03 04:38:44;;;;;;;0.98;0.98;;;;;;;6.03;80.08;99294.56;4484540;32;34766;-73
2023/03/03 04:41:13;;;;;;;0.60;0.60;;;;;;;5.88;81.76;99296.16;4485157;32;35009;-74
2023/03/03 04:43:41;;;;;;;1.55;1.45;;;;;;;5.62;84.05;99302.84;4485124;32;35322;-73
2023/03/03 04:46:11;;;;;;;0.50;0.50;;;;;;;6.16;83.03;99295.50;4485113;32;33315;-73
2023/03/03 04:48:39;;;;;;;0.60;0.60;;;;;;;6.76;79.53;99291.53;4485103;32;34786;-77
2023/03/03 04:51:07;;;;;;;0.60;0.60;;;;;;;6.61;79.09;99288.88;4484890;32;36020;-74
2023/03/03 04:53:37;;;;;;;0.50;0.50;;;;;;;6.40;80.26;99290.47;4485028;32;34359;-74
2023/03/03 04:56:06;;;;;;;0.55;0.55;;;;;;;6.15;80.97;99291.22;4484966;32;34264;-74
2023/03/03 04:58:34;;;;;;;0.82;0.82;;;;;;;6.33;80.03;99285.28;4485065;32;34661;-72
2023/03/03 05:01:02;;;;;;;0.50;0.50;;;;;;;6.53;79.36;99290.53;4471014;32;35902;-75
2023/03/03 05:03:31;;;;;;;0.50;0.50;;;;;;;6.43;79.61;99290.50;4454624;32;34645;-73
2023/03/03 05:05:59;;;;;;;0.50;0.50;;;;;;;6.78;78.26;99294.97;4455150;32;33583;-74
2023/03/03 05:08:27;;;;;;;0.75;0.75;;;;;;;6.66;79.88;99294.94;4466965;32;34110;-75
2023/03/03 05:10:58;;;;;;;1.35;1.25;;;;;;;6.96;78.61;99296.75;4484788;32;34987;-73
2023/03/03 05:13:26;;;;;;;0.50;0.50;;;;;;;7.23;77.45;99295.09;4484414;32;34596;-74
2023/03/03 05:15:55;;;;;;;0.65;0.65;;;;;;;7.16;77.90;99296.81;4484660;32;33460;-78
2023/03/03 05:18:24;;;;;;;0.60;0.60;;;;;;;7.01;78.29;99289.88;4470386;32;33813;-79
2023/03/03 05:20:53;;;;;;;0.65;0.65;;;;;;;7.15;77.52;99291.66;4484630;32;35758;-71
2023/03/03 05:23:21;;;;;;;0.55;0.55;;;;;;;6.53;80.10;99295.72;4470354;32;34475;-72
2023/03/03 05:25:49;;;;;;;0.60;0.60;;;;;;;7.00;78.18;99295.03;4484700;32;33651;-73
2023/03/03 05:28:18;;;;;;;3.05;2.25;;;;;;;6.90;79.10;99301.03;4470282;32;33834;-71
2023/03/03 05:30:46;;;;;;;0.50;0.50;;;;;;;6.39;80.91;99303.44;4470050;32;34348;-73
2023/03/03 05:33:15;;;;;;;0.70;0.70;;;;;;;6.17;84.05;99300.69;4484237;32;34586;-72
2023/03/03 05:35:44;;;;;;;0.55;0.55;;;;;;;6.50;81.08;99298.31;4470398;32;33525;-79
2023/03/03 05:38:12;;;;;;;0.50;0.50;;;;;;;6.48;80.73;99300.00;4457721;32;33740;-79
2023/03/03 05:40:40;;;;;;;0.50;0.50;;;;;;;6.57;79.64;99297.47;4484899;32;35791;-80
2023/03/03 05:43:08;;;;;;;0.70;0.70;;;;;;;6.37;81.68;99305.13;4472506;32;33851;-80
2023/03/03 05:45:36;;;;;;;1.65;1.55;;;;;;;6.61;80.47;99306.97;4486855;32;33470;-80
2023/03/03 05:48:04;;;;;;;0.70;0.70;;;;;;;6.62;80.47;99306.97;4486576;32;33915;-72
2023/03/03 05:50:32;;;;;;;0.70;0.70;;;;;;;6.08;83.52;99308.41;4472615;32;35920;-80
2023/03/03 05:53:00;;;;;;;0.50;0.50;;;;;;;5.46;86.61;99312.16;4486680;32;34409;-79
2023/03/03 05:55:29;;;;;;;0.90;0.90;;;;;;;5.37;87.35;99312.94;4486649;32;33699;-79
2023/03/03 05:57:57;;;;;;;1.00;1.00;;;;;;;5.88;85.61;99309.09;4486677;32;34003;-80
2023/03/03 06:00:25;;;;;;;0.62;0.62;;;;;;;5.48;87.48;99311.31;4486726;32;36010;-79
2023/03/03 06:02:54;;;;;;;0.65;0.65;;;;;;;5.55;88.11;99317.41;4486810;32;34379;-72
2023/03/03 06:05:22;;;;;;;0.50;0.50;;;;;;;6.00;86.51;99316.09;4486624;31;33317;-72
2023/03/03 06:07:50;;;;;;;0.80;0.80;;;;;;;6.38;84.23;99309.44;4459682;32;33956;-82
2023/03/03 06:10:18;;;;;;;0.60;0.60;;;;;;;6.17;85.08;99317.94;4486723;32;35128;-72
2023/03/03 06:12:47;;;;;;;0.70;0.70;;;;;;;6.01;86.77;99320.41;4472792;32;34558;-74
2023/03/03 06:15:15;;;;;;;1.08;1.02;;;;;;;5.53;90.18;99323.44;4472600;32;34259;-72
2023/03/03 06:17:44;;;;;;;0.50;0.50;;;;;;;5.81;89.27;99330.56;4486594;32;33940;-71
2023/03/03 06:20:12;;;;;;;0.50;0.50;;;;;;;6.18;87.92;99324.84;4486582;32;35083;-71
2023/03/03 06:22:40;;;;;;;1.45;1.45;;;;;;;6.29;86.54;99319.75;4484803;32;35262;-78
2023/03/03 06:25:08;;;;;;;3.20;1.45;;;;;;;6.44;87.19;99324.97;4459310;32;31885;-71
2023/03/03 06:27:36;;;;;;;1.48;1.37;;;;;;;6.04;89.02;99325.59;4486209;32;34716;-71
2023/03/03 06:30:05;;;;;;;0.75;0.75;;;;;;;5.96;89.99;99323.81;4472234;32;35755;-77
2023/03/03 06:32:33;;;;;;;0.60;0.60;;;;;;;6.47;88.18;99337.94;4486092;32;35119;-71
2023/03/03 06:35:02;;;;;;;0.50;0.50;;;;;;;6.37;89.28;99334.44;4486194;32;33699;-70
2023/03/03 06:37:30;;;;;;;1.12;1.12;;;;;;;6.43;88.31;99336.19;4459074;32;33078;-71
2023/03/03 06:39:58;;;;;;;0.75;0.75;;;;;;;6.26;90.13;99334.38;4486011;32;35166;-78
2023/03/03 06:42:26;;;;;;;0.60;0.60;;;;;;;6.66;87.97;99332.88;4486000;32;35328;-76
2023/03/03 06:44:54;;;;;;;1.15;1.15;;;;;;;6.81;88.08;99327.75;4470535;32;34556;-77
2023/03/03 06:47:23;;;;;;;3.45;3.25;;;;;;;6.88;87.32;99334.69;4443572;32;33961;-77
2023/03/03 06:49:51;;;;;;;2.03;1.92;;;;;;;6.99;85.12;99337.34;4485926;32;35986;-73
2023/03/03 06:52:24;;;;;;;1.08;1.02;;;;;;;7.57;82.26;99334.88;4470967;32;34412;-78
2023/03/03 06:54:57;;;;;;;1.02;1.02;;;;;;;7.07;81.29;99329.59;4486133;32;33484;-71
2023/03/03 06:57:28;;;;;;;1.40;1.37;;;;;;;6.82;80.85;99339.84;4486254;32;34174;-82
2023/03/03 07:00:14;;;;;;;0.90;0.90;;;;;;;7.06;80.13;99341.69;4472027;32;34953;-84
2023/03/03 07:02:43;;;;;;;1.37;1.35;;;;;;;7.11;78.66;99341.66;4486039;32;35261;-81
2023/03/03 07:05:15;;;;;;;2.55;2.45;;;;;;;7.00;79.15;99345.09;4486077;32;33506;-81
2023/03/03 07:07:43;;;;;;;1.20;1.20;;;;;;;7.03;79.67;99354.59;4472003;32;33857;-77
2023/03/03 07:10:20;;;;;;;0.65;0.65;;;;;;;7.10;77.40;99351.19;4455424;32;35102;-74
2023/03/03 07:12:48;;;;;;;1.23;1.20;;;;;;;6.95;77.61;99356.28;4457399;31;34893;-71
2023/03/03 07:15:33;;;;;;;1.62;1.52;;;;;;;7.65;75.00;99355.63;4466398;32;34088;-79
2023/03/03 07:18:03;;;;;;;0.80;0.80;;;;;;;7.39;75.95;99361.63;4458518;32;33930;-74
2023/03/03 07:20:35;;;;;;;1.65;1.55;;;;;;;7.17;76.32;99359.84;4472175;31;35076;-77
2023/03/03 07:23:26;;;;;;;1.02;1.02;;;;;;;7.74;75.09;99360.81;4458278;32;33706;-71
2023/03/03 07:25:54;;;;;;;1.05;1.00;;;;;;;7.70;74.58;99369.44;4462686;32;33514;-78
2023/03/03 07:28:27;;;;;;;2.65;2.45;;;;;;;7.36;75.04;99374.56;4460290;32;33976;-72
2023/03/03 07:30:56;;;;;;;2.12;1.92;;;;;;;7.54;74.73;99372.88;4456438;31;35741;-78
2023/03/03 07:33:33;;;;;;;0.80;0.80;;;;;;;7.66;73.03;99379.78;4460312;32;35087;-74
2023/03/03 07:36:02;;;;;;;1.25;1.20;;;;;;;7.60;74.46;99370.28;4462104;31;34161;-70
2023/03/03 07:38:36;;;;;;;1.52;1.48;;;;;;;7.20;77.25;99375.41;4469980;31;34634;-74
2023/03/03 07:41:11;;;;;;;4.80;0.85;;;;;;;7.78;73.39;99380.69;4455859;32;35183;-71
2023/03/03 07:44:16;;;;;;;1.55;1.45;;;;;;;7.85;73.09;99373.78;4456176;31;34914;-72
2023/03/03 07:46:47;;;;;;;0.50;0.50;;;;;;;7.60;74.90;99373.75;4457050;31;33470;-71
2023/03/03 07:49:35;;;;;;;0.70;0.70;;;;;;;8.25;71.92;99378.13;4469968;31;33381;-73
2023/03/03 07:52:25;;;;;;;1.20;1.20;;;;;;;7.77;74.26;99380.69;4476963;31;35068;-72
2023/03/03 07:54:56;;;;;;;1.98;1.80;;;;;;;7.61;74.16;99379.81;4455980;32;34540;-74
2023/03/03 07:57:27;;;;;;;1.48;1.42;;;;;;;8.19;73.55;99388.47;4456404;31;33674;-73
2023/03/03 08:00:15;;;;;;;1.27;1.27;;;;;;;8.37;71.72;99393.66;4455998;32;34788;-73
2023/03/03 08:02:46;;;;;;;0.98;0.98;;;;;;;8.56;71.44;99388.47;4476793;31;35070;-71
2023/03/03 08:05:25;;;;;;;1.52;1.42;;;;;;;8.20;73.29;99391.06;4455411;32;34635;-78
2023/03/03 08:08:07;;;;;;;1.00;1.00;;;;;;;8.60;70.78;99380.69;4469795;31;33341;-76
2023/03/03 08:10:42;;;;;;;1.98;1.87;;;;;;;8.35;71.06;99387.62;4470975;31;33406;-70
2023/03/03 08:13:21;;;;;;;0.80;0.80;;;;;;;9.18;68.38;99384.84;4460602;32;35064;-75
2023/03/03 08:16:02;;;;;;;1.02;0.95;;;;;;;8.17;73.08;99385.91;4455879;31;34662;-70
2023/03/03 08:18:35;;;;;;;0.65;0.65;;;;;;;8.62;70.83;99388.47;4455914;32;33361;-76
2023/03/03 08:21:15;;;;;;;7.97;2.25;;;;;;;8.62;71.26;99388.47;4473456;31;33732;-70
2023/03/03 08:23:43;;;;;;;1.08;0.98;;;;;;;9.13;68.34;99385.72;4457201;31;35251;-71
2023/03/03 08:26:12;;;;;;;1.20;1.20;;;;;;;8.74;69.11;99388.44;4470072;31;35277;-71
2023/03/03 08:28:40;;;;;;;1.52;1.45;;;;;;;8.35;71.18;99383.28;4469353;31;33604;-71
2023/03/03 08:31:09;;;;;;;0.85;0.85;;;;;;;8.50;71.82;99384.16;4473397;31;34085;-71
2023/03/03 08:33:52;;;;;;;0.70;0.70;;;;;;;8.76;70.37;99391.03;4470504;31;35125;-72
2023/03/03 08:36:20;;;;;;;2.05;1.95;;;;;;;8.37;71.81;99388.47;4469625;32;34533;-83
2023/03/03 08:38:48;;;;;;;1.90;1.75;;;;;;;8.30;72.15;99386.75;4469740;32;33584;-78
2023/03/03 08:41:16;;;;;;;0.52;0.52;;;;;;;8.22;72.46;99391.06;4455799;32;33821;-74
2023/03/03 08:43:45;;;;;;;0.62;0.62;;;;;;;8.30;71.54;99386.75;4469835;32;35732;-89
2023/03/03 08:46:13;;;;;;;0.60;0.60;;;;;;;8.20;72.91;99390.22;4469495;32;33937;-73
2023/03/03 08:48:41;;;;;;;2.17;2.05;;;;;;;7.96;75.89;99387.62;4469893;32;34246;-85
2023/03/03 08:51:09;;;;;;;2.45;2.25;;;;;;;8.21;74.09;99384.19;4453949;32;34353;-89
2023/03/03 08:53:37;;;;;;;3.70;3.35;;;;;;;8.83;71.18;99383.22;4469483;32;35038;-87
2023/03/03 08:56:05;;;;;;;0.50;0.50;;;;;;;9.02;70.28;99383.19;4469301;32;34516;-87
2023/03/03 08:58:34;;;;;;;0.80;0.80;;;;;;;8.70;73.79;99390.19;4469395;32;34297;-74
2023/03/03 09:01:04;;;;;;;34.17;4.75;;;;;;;8.44;73.21;99389.38;4455545;32;33856;-73
2023/03/03 09:03:32;;;;;;;0.85;0.85;;;;;;;8.14;74.55;99397.13;4469619;32;35931;-75
2023/03/03 09:06:01;;;;;;;0.40;0.40;;;;;;;9.02;71.44;99383.19;4455407;32;34685;-86
2023/03/03 09:08:29;;;;;;;0.60;0.60;;;;;;;8.26;74.26;99383.31;4469281;32;33357;-87
2023/03/03 09:10:58;;;;;;;1.80;1.70;;;;;;;9.08;71.02;99388.34;4469168;32;34630;-87
2023/03/03 09:13:28;;;;;;;1.02;1.02;;;;;;;8.96;70.46;99381.44;4455191;32;35768;-79
2023/03/03 09:15:58;;;;;;;1.08;1.05;;;;;;;9.00;69.71;99379.69;4456076;32;34544;-88
2023/03/03 09:18:34;;;;;;;0.73;0.73;;;;;;;9.03;70.36;99384.88;4471499;32;34467;-88
2023/03/03 09:21:21;;;;;;;1.05;1.05;;;;;;;9.07;71.27;99381.41;4457210;32;32411;-74
2023/03/03 09:23:58;;;;;;;1.85;1.75;;;;;;;9.81;67.57;99381.00;4444634;32;33564;-90
2023/03/03 09:26:43;;;;;;;3.15;2.97;;;;;;;9.42;68.75;99382.97;4457350;32;34950;-72
2023/03/03 09:29:13;;;;;;;1.77;1.30;;;;;;;9.14;69.34;99380.53;4471304;32;34329;-74
2023/03/03 09:31:48;;;;;;;1.33;1.25;;;;;;;9.51;69.74;99372.50;4471220;32;33852;-85
2023/03/03 09:34:26;;;;;;;0.90;0.90;;;;;;;8.97;70.72;99379.72;4457517;32;35030;-86
2023/03/03 09:36:55;;;;;;;1.85;1.40;;;;;;;10.09;68.18;99380.78;4471182;32;35316;-73
2023/03/03 09:39:25;;;;;;;16.40;4.75;;;;;;;9.27;69.68;99386.53;4471109;32;33463;-72
2023/03/03 09:42:05;;;;;;;2.35;2.15;;;;;;;9.46;70.53;99387.31;4444537;32;35436;-80
2023/03/03 09:44:52;;;;;;;2.15;2.00;;;;;;;9.82;68.49;99387.94;4471159;32;35070;-74
2023/03/03 09:47:51;;;;;;;0.67;0.67;;;;;;;10.63;64.88;99381.19;4457046;32;34434;-84
2023/03/03 09:50:25;;;;;;;1.45;1.37;;;;;;;9.85;67.41;99382.72;4464184;32;33122;-85
2023/03/03 09:53:05;;;;;;;2.33;2.15;;;;;;;10.05;66.92;99383.41;4471137;32;34043;-75
2023/03/03 09:55:56;;;;;;;1.48;1.37;;;;;;;10.22;64.65;99387.62;4470985;32;35185;-82
2023/03/03 09:58:55;;;;;;;0.88;0.88;;;;;;;10.49;65.82;99373.53;4471139;32;34502;-77
2023/03/03 10:01:57;;;;;;;0.60;0.60;;;;;;;11.09;62.82;99372.00;4471090;32;33355;-79
2023/03/03 10:05:14;;;;;;;0.75;0.75;;;;;;;11.92;60.12;99381.31;4471071;32;34872;-73
2023/03/03 10:08:07;;;;;;;0.93;0.93;;;;;;;13.87;52.08;99365.34;4455012;32;35960;-78
2023/03/03 10:10:39;;;;;;;0.98;0.93;;;;;;;15.01;46.54;99365.88;4470962;32;33978;-73
2023/03/03 10:13:33;;;;;;;3.33;1.83;;;;;;;15.51;45.95;99370.53;4444271;32;33776;-81
2023/03/03 10:16:18;;;;;;;1.58;1.48;;;;;;;15.81;46.50;99367.91;4470874;32;34900;-83
2023/03/03 10:19:14;;;;;;;3.97;2.65;;;;;;;16.35;44.87;99374.88;4470857;32;34975;-83
2023/03/03 10:21:50;;;;;;;2.22;2.05;;;;;;;16.71;45.75;99371.88;4470770;32;34424;-83
2023/03/03 10:24:43;;;;;;;2.78;1.80;;;;;;;16.59;44.63;99377.56;4471003;32;33482;-76
2023/03/03 10:27:48;;;;;;;2.25;2.05;;;;;;;17.75;39.79;99364.53;4456853;32;34063;-83
2023/03/03 10:30:42;;;;;;;2.25;1.92;;;;;;;17.77;38.68;99359.19;4456845;32;35057;-76
2023/03/03 10:33:48;;;;;;;0.90;0.90;;;;;;;18.72;37.35;99354.38;4470796;32;34211;-78
2023/03/03 10:36:45;;;;;;;1.33;1.23;;;;;;;17.46;39.97;99349.88;4457174;32;33329;-74
2023/03/03 10:39:38;;;;;;;1.60;1.50;;;;;;;18.70;37.54;99346.53;4470754;32;33849;-74
2023/03/03 10:42:46;;;;;;;1.62;1.52;;;;;;;18.30;38.94;99353.53;4470871;32;35902;-74
2023/03/03 10:45:20;;;;;;;2.17;1.98;;;;;;;18.70;38.14;99346.53;4469780;32;34336;-75
2023/03/03 10:48:03;;;;;;;11.13;2.40;;;;;;;18.83;39.66;99346.00;4456842;32;34326;-74
2023/03/03 10:51:08;;;;;;;2.22;2.03;;;;;;;18.44;38.69;99341.53;4456842;32;33925;-74
2023/03/03 10:53:57;;;;;;;3.03;1.80;;;;;;;19.81;35.73;99336.19;4470740;32;35908;-74
2023/03/03 10:56:50;;;;;;;0.77;0.77;;;;;;;19.28;37.44;99347.50;4470607;32;34406;-75
2023/03/03 10:59:59;;;;;;;1.48;1.40;;;;;;;20.49;35.73;99337.22;4470662;32;33450;-76
2023/03/03 11:02:52;;;;;;;5.22;2.85;;;;;;;20.18;37.12;99334.34;4431176;32;33771;-74
2023/03/03 11:05:27;;;;;;;1.08;1.08;;;;;;;21.20;32.86;99331.72;4470672;32;34857;-76
2023/03/03 11:08:11;;;;;;;2.10;1.92;;;;;;;20.36;34.99;99331.72;4470531;32;34455;-75
2023/03/03 11:10:51;;;;;;;0.90;0.90;;;;;;;19.92;36.16;99327.72;4470692;32;33490;-75
2023/03/03 11:13:41;;;;;;;2.42;1.70;;;;;;;20.92;33.26;99330.56;4456837;32;34687;-80
2023/03/03 11:16:24;;;;;;;5.12;3.55;;;;;;;20.13;35.02;99328.44;4456561;32;34930;-80
2023/03/03 11:19:10;;;;;;;1.75;1.62;;;;;;;19.64;35.33;99313.22;4470542;32;34554;-75
2023/03/03 11:22:10;;;;;;;2.58;2.37;;;;;;;18.82;39.47;99320.56;4470552;32;34365;-74
2023/03/03 11:24:54;;;;;;;1.67;1.58;;;;;;;18.52;40.73;99310.44;4462391;32;33967;-80
2023/03/03 11:27:52;;;;;;;4.80;2.83;;;;;;;18.05;40.67;99306.25;4470572;32;35022;-79
2023/03/03 11:30:38;;;;;;;4.12;2.10;;;;;;;17.25;42.52;99304.19;4456804;32;34294;-74
2023/03/03 11:33:39;;;;;;;1.67;1.58;;;;;;;17.20;43.48;99304.34;4456518;32;33472;-79
2023/03/03 11:36:21;;;;;;;2.03;1.58;;;;;;;18.21;42.56;99293.28;4467894;32;34010;-76
2023/03/03 11:38:59;;;;;;;2.20;2.00;;;;;;;20.03;37.90;99298.13;4471268;32;34918;-76
2023/03/03 11:41:42;;;;;;;1.17;1.08;;;;;;;19.18;36.66;99294.25;4472056;32;34455;-80
2023/03/03 11:44:16;;;;;;;0.95;0.80;;;;;;;18.85;39.05;99284.34;4486172;32;33396;-74
2023/03/03 11:47:03;;;;;;;1.45;1.30;;;;;;;18.76;38.71;99293.50;4486259;32;34624;-75
2023/03/03 11:50:04;;;;;;;0.65;0.65;;;;;;;19.41;38.24;99285.28;4471940;32;35907;-75
2023/03/03 11:52:35;;;;;;;2.05;1.83;;;;;;;20.03;35.30;99283.13;4406754;32;34521;-79
2023/03/03 11:55:18;;;;;;;1.10;1.02;;;;;;;18.05;39.39;99284.31;4471899;32;33406;-74
2023/03/03 11:58:19;;;;;;;0.77;0.77;;;;;;;17.10;41.86;99284.59;4472318;32;34707;-74
2023/03/03 12:00:57;;;;;;;1.37;1.25;;;;;;;17.15;39.63;99282.63;4485897;32;34901;-74
2023/03/03 12:03:38;;;;;;;1.92;1.48;;;;;;;16.23;42.42;99283.34;4472726;32;35074;-79
2023/03/03 12:06:29;;;;;;;15.73;4.37;;;;;;;14.89;46.24;99277.09;4458982;32;33600;-79
2023/03/03 12:09:07;;;;;;;0.73;0.73;;;;;;;15.33;45.43;99280.12;4471884;32;33603;-74
2023/03/03 12:11:53;;;;;;;0.77;0.77;;;;;;;15.52;44.33;99280.41;4485839;32;35448;-74
2023/03/03 12:14:53;;;;;;;1.30;1.20;;;;;;;14.59;46.05;99277.94;4471454;32;33696;-74